Weed Airport Atmospheric Data: 07/12/2018 Summary  Detailed Graphs  Station List

  Temperature     Wind Precipitation Visibility
Timestamp Air Wet
Bulb
Dew-
point
24-hr
Max
24-hr
Min
Relative
Humidity
Atmospheric
Pressure
Avg
Speed
Avg
Dir
Spot
Speed
Spot
Dir
Max
Speed
Max
Dir
  Rate Situation Start End 1 hr 3 hr 6 hr 12 hr 24 hr   Situation
Date Time °F °F °F °F °F % in Hg mph ° mph ° mph ° Y/N in/hr text Date Time Date Time in in in in in mi text
07/12/2018 12:00 AM 73.04 57.92 46.40 95.90 53.60 38.0 Not Reported 2.68 SE 3.13 S 4.03 SE No 0.000 No Precipitation 06/20/2018 08:35 PM 06/20/2018 08:55 PM 0.000 0.000 0.000 0.000 0.000 Not Reported Not Reported
07/12/2018 12:15 AM 69.80 56.84 46.94 95.90 53.60 43.0 Not Reported 6.26 SE 8.28 SE 4.92 SE No 0.000 No Precipitation 06/20/2018 08:35 PM 06/20/2018 08:55 PM 0.000 0.000 0.000 0.000 0.000 Not Reported Not Reported
07/12/2018 12:30 AM 68.36 56.48 47.30 95.90 53.60 46.0 Not Reported 5.14 SE 5.14 SE 6.26 SE No 0.000 No Precipitation 06/20/2018 08:35 PM 06/20/2018 08:55 PM 0.000 0.000 0.000 0.000 0.000 Not Reported Not Reported
07/12/2018 12:45 AM 70.88 57.20 46.76 95.90 53.60 42.0 Not Reported 6.49 SE 6.26 SE 9.84 SE No 0.000 No Precipitation 06/20/2018 08:35 PM 06/20/2018 08:55 PM 0.000 0.000 0.000 0.000 0.000 Not Reported Not Reported
07/12/2018 01:00 AM 70.70 57.20 46.76 95.90 53.60 42.0 Not Reported 7.83 SE 7.38 SE 8.50 SE No 0.000 No Precipitation 06/20/2018 08:35 PM 06/20/2018 08:55 PM 0.000 0.000 0.000 0.000 0.000 Not Reported Not Reported
07/12/2018 01:15 AM 71.24 57.38 46.94 95.90 53.60 42.0 Not Reported 7.61 SE 6.93 SE 10.74 SE No 0.000 No Precipitation 06/20/2018 08:35 PM 06/20/2018 08:55 PM 0.000 0.000 0.000 0.000 0.000 Not Reported Not Reported
07/12/2018 01:30 AM 71.24 57.56 47.12 95.90 53.60 42.0 Not Reported 8.28 SE 7.83 SE 10.74 S No 0.000 No Precipitation 06/20/2018 08:35 PM 06/20/2018 08:55 PM 0.000 0.000 0.000 0.000 0.000 Not Reported Not Reported
07/12/2018 01:45 AM 70.16 57.20 47.30 95.90 53.60 43.0 Not Reported 5.37 S 4.92 SE 9.17 SE No 0.000 No Precipitation 06/20/2018 08:35 PM 06/20/2018 08:55 PM 0.000 0.000 0.000 0.000 0.000 Not Reported Not Reported
07/12/2018 02:00 AM 69.08 57.02 47.84 95.90 53.60 46.0 Not Reported 8.05 SE 8.05 SE 8.28 SE No 0.000 No Precipitation 06/20/2018 08:35 PM 06/20/2018 08:55 PM 0.000 0.000 0.000 0.000 0.000 Not Reported Not Reported
07/12/2018 02:15 AM 68.18 56.12 46.94 95.90 53.60 46.0 Not Reported 5.14 SE 4.25 SE 8.72 SE No 0.000 No Precipitation 06/20/2018 08:35 PM 06/20/2018 08:55 PM 0.000 0.000 0.000 0.000 0.000 Not Reported Not Reported
07/12/2018 02:30 AM 68.72 56.84 47.66 95.90 53.60 47.0 Not Reported 7.38 SE 7.38 SE 10.96 SE No 0.000 No Precipitation 06/20/2018 08:35 PM 06/20/2018 08:55 PM 0.000 0.000 0.000 0.000 0.000 Not Reported Not Reported
07/12/2018 02:45 AM 69.26 57.02 47.66 95.90 53.60 46.0 Not Reported 10.07 SE 10.29 SE 8.72 SE No 0.000 No Precipitation 06/20/2018 08:35 PM 06/20/2018 08:55 PM 0.000 0.000 0.000 0.000 0.000 Not Reported Not Reported
07/12/2018 03:00 AM 66.92 56.12 47.84 95.90 53.60 50.0 Not Reported 4.25 SE 3.80 S 8.95 S No 0.000 No Precipitation 06/20/2018 08:35 PM 06/20/2018 08:55 PM 0.000 0.000 0.000 0.000 0.000 Not Reported Not Reported
07/12/2018 03:15 AM 67.82 56.48 47.84 95.90 53.60 48.0 Not Reported 5.14 SE 1.57 S 9.62 S No 0.000 No Precipitation 06/20/2018 08:35 PM 06/20/2018 08:55 PM 0.000 0.000 0.000 0.000 0.000 Not Reported Not Reported
07/12/2018 03:30 AM 66.02 55.76 48.02 95.90 53.60 52.0 Not Reported 6.71 SE 6.71 SE 8.72 SE No 0.000 No Precipitation 06/20/2018 08:35 PM 06/20/2018 08:55 PM 0.000 0.000 0.000 0.000 0.000 Not Reported Not Reported
07/12/2018 03:45 AM 66.38 55.94 47.84 95.90 53.60 50.0 Not Reported 6.04 SE 6.04 S 9.17 SE No 0.000 No Precipitation 06/20/2018 08:35 PM 06/20/2018 08:55 PM 0.000 0.000 0.000 0.000 0.000 Not Reported Not Reported
07/12/2018 04:00 AM 65.30 55.58 48.20 95.90 53.60 53.0 Not Reported 5.37 S 6.49 S 8.72 SE No 0.000 No Precipitation 06/20/2018 08:35 PM 06/20/2018 08:55 PM 0.000 0.000 0.000 0.000 0.000 Not Reported Not Reported
07/12/2018 04:15 AM 64.76 55.40 48.20 95.90 53.60 55.0 Not Reported 4.70 SE 5.82 SE 6.93 S No 0.000 No Precipitation 06/20/2018 08:35 PM 06/20/2018 08:55 PM 0.000 0.000 0.000 0.000 0.000 Not Reported Not Reported
07/12/2018 04:30 AM 65.66 55.76 48.02 95.90 53.60 52.0 Not Reported 5.82 SE 5.59 SE 8.50 SE No 0.000 No Precipitation 06/20/2018 08:35 PM 06/20/2018 08:55 PM 0.000 0.000 0.000 0.000 0.000 Not Reported Not Reported
07/12/2018 04:45 AM 65.12 55.40 47.84 95.90 53.60 53.0 Not Reported 5.59 SE 4.47 SE 6.49 S No 0.000 No Precipitation 06/20/2018 08:35 PM 06/20/2018 08:55 PM 0.000 0.000 0.000 0.000 0.000 Not Reported Not Reported
07/12/2018 05:00 AM 61.88 54.14 48.02 95.90 53.60 60.0 Not Reported 3.58 SE 4.47 SE 7.61 S No 0.000 No Precipitation 06/20/2018 08:35 PM 06/20/2018 08:55 PM 0.000 0.000 0.000 0.000 0.000 Not Reported Not Reported
07/12/2018 05:15 AM 62.60 54.32 48.02 95.90 53.60 58.0 Not Reported 3.13 SE 4.03 SE 6.26 S No 0.000 No Precipitation 06/20/2018 08:35 PM 06/20/2018 08:55 PM 0.000 0.000 0.000 0.000 0.000 Not Reported Not Reported
07/12/2018 05:30 AM 63.50 54.86 48.20 95.90 53.60 57.0 Not Reported 5.59 SE 4.25 SE 6.71 S No 0.000 No Precipitation 06/20/2018 08:35 PM 06/20/2018 08:55 PM 0.000 0.000 0.000 0.000 0.000 Not Reported Not Reported
07/12/2018 05:45 AM 60.98 53.96 48.38 95.90 53.60 63.0 Not Reported 3.36 SE 5.59 SE 6.26 S No 0.000 No Precipitation 06/20/2018 08:35 PM 06/20/2018 08:55 PM 0.000 0.000 0.000 0.000 0.000 Not Reported Not Reported
07/12/2018 06:00 AM 62.24 54.32 48.02 95.90 53.60 59.0 Not Reported 6.26 SE 5.14 S 8.28 S No 0.000 No Precipitation 06/20/2018 08:35 PM 06/20/2018 08:55 PM 0.000 0.000 0.000 0.000 0.000 Not Reported Not Reported
07/12/2018 06:15 AM 62.24 54.50 48.20 95.90 55.04 60.0 Not Reported 6.71 S 6.49 SE 8.50 S No 0.000 No Precipitation 06/20/2018 08:35 PM 06/20/2018 08:55 PM 0.000 0.000 0.000 0.000 0.000 Not Reported Not Reported
07/12/2018 06:30 AM 62.78 54.68 48.38 95.90 55.76 59.0 Not Reported 8.50 S 8.72 S 8.72 S No 0.000 No Precipitation 06/20/2018 08:35 PM 06/20/2018 08:55 PM 0.000 0.000 0.000 0.000 0.000 Not Reported Not Reported
07/12/2018 06:45 AM 61.34 54.14 48.38 95.90 55.76 62.0 Not Reported 7.61 SE 7.61 SE 8.50 S No 0.000 No Precipitation 06/20/2018 08:35 PM 06/20/2018 08:55 PM 0.000 0.000 0.000 0.000 0.000 Not Reported Not Reported
07/12/2018 07:00 AM 60.44 53.06 47.12 95.90 56.30 61.0 Not Reported 4.47 SE 4.03 E 7.61 SE No 0.000 No Precipitation 06/20/2018 08:35 PM 06/20/2018 08:55 PM 0.000 0.000 0.000 0.000 0.000 Not Reported Not Reported
07/12/2018 07:15 AM 58.82 52.70 47.84 95.90 57.56 66.0 Not Reported 4.92 SE 4.92 SE 8.28 SE No 0.000 No Precipitation 06/20/2018 08:35 PM 06/20/2018 08:55 PM 0.000 0.000 0.000 0.000 0.000 Not Reported Not Reported
07/12/2018 07:30 AM 60.26 53.60 48.20 95.90 58.28 64.0 Not Reported 5.59 SE 5.37 SE 7.16 SE No 0.000 No Precipitation 06/20/2018 08:35 PM 06/20/2018 08:55 PM 0.000 0.000 0.000 0.000 0.000 Not Reported Not Reported
07/12/2018 07:45 AM 62.78 54.68 48.56 95.90 58.82 59.0 Not Reported 3.36 SE 2.68 SE 6.49 SE No 0.000 No Precipitation 06/20/2018 08:35 PM 06/20/2018 08:55 PM 0.000 0.000 0.000 0.000 0.000 Not Reported Not Reported
07/12/2018 08:00 AM 65.84 55.94 48.38 95.90 58.82 53.0 Not Reported 5.37 SE 5.82 SE 6.26 SE No 0.000 No Precipitation 06/20/2018 08:35 PM 06/20/2018 08:55 PM 0.000 0.000 0.000 0.000 0.000 Not Reported Not Reported
07/12/2018 08:15 AM 67.28 56.66 48.74 95.90 58.82 51.0 Not Reported 3.13 SE 2.91 SE 6.04 SE No 0.000 No Precipitation 06/20/2018 08:35 PM 06/20/2018 08:55 PM 0.000 0.000 0.000 0.000 0.000 Not Reported Not Reported
07/12/2018 08:30 AM 69.98 57.74 48.74 95.90 58.82 46.0 Not Reported 2.46 SE 2.68 SE 3.58 SE No 0.000 No Precipitation 06/20/2018 08:35 PM 06/20/2018 08:55 PM 0.000 0.000 0.000 0.000 0.000 Not Reported Not Reported
07/12/2018 08:45 AM 71.42 58.28 48.92 95.90 58.82 44.0 Not Reported 2.01 S 1.34 S 3.13 S No 0.000 No Precipitation 06/20/2018 08:35 PM 06/20/2018 08:55 PM 0.000 0.000 0.000 0.000 0.000 Not Reported Not Reported
07/12/2018 09:00 AM 73.04 59.00 48.74 95.90 58.82 42.0 Not Reported 1.34 SW 1.34 S 2.01 S No 0.000 No Precipitation 06/20/2018 08:35 PM 06/20/2018 08:55 PM 0.000 0.000 0.000 0.000 0.000 Not Reported Not Reported
07/12/2018 09:15 AM 74.84 59.36 47.84 95.90 58.82 38.0 Not Reported 1.12 W 2.01 SW 2.01 SW No 0.000 No Precipitation 06/20/2018 08:35 PM 06/20/2018 08:55 PM 0.000 0.000 0.000 0.000 0.000 Not Reported Not Reported
07/12/2018 09:30 AM 76.64 59.36 46.22 95.90 58.82 34.0 Not Reported 1.57 NW 2.24 N 2.24 N No 0.000 No Precipitation 06/20/2018 08:35 PM 06/20/2018 08:55 PM 0.000 0.000 0.000 0.000 0.000 Not Reported Not Reported
07/12/2018 09:45 AM 77.00 59.18 45.68 95.90 58.82 32.0 Not Reported 2.01 W 2.24 W 3.58 NW No 0.000 No Precipitation 06/20/2018 08:35 PM 06/20/2018 08:55 PM 0.000 0.000 0.000 0.000 0.000 Not Reported Not Reported
07/12/2018 10:00 AM 77.36 59.36 45.86 95.90 58.82 32.0 Not Reported 0.89 W 1.79 W 3.58 W No 0.000 No Precipitation 06/20/2018 08:35 PM 06/20/2018 08:55 PM 0.000 0.000 0.000 0.000 0.000 Not Reported Not Reported
07/12/2018 10:15 AM 77.90 59.36 45.14 95.90 58.82 31.0 Not Reported 3.80 NW 3.80 NE 4.70 NE No 0.000 No Precipitation 06/20/2018 08:35 PM 06/20/2018 08:55 PM 0.000 0.000 0.000 0.000 0.000 Not Reported Not Reported
07/12/2018 10:30 AM 78.26 59.36 44.78 95.90 58.82 30.0 Not Reported 3.36 NE 2.46 NE 5.59 NE No 0.000 No Precipitation 06/20/2018 08:35 PM 06/20/2018 08:55 PM 0.000 0.000 0.000 0.000 0.000 Not Reported Not Reported
07/12/2018 10:45 AM 79.70 59.54 44.24 95.90 58.82 28.0 Not Reported 2.91 E 3.58 E 2.91 NE No 0.000 No Precipitation 06/20/2018 08:35 PM 06/20/2018 08:55 PM 0.000 0.000 0.000 0.000 0.000 Not Reported Not Reported
07/12/2018 11:00 AM 79.70 59.36 43.70 95.90 58.82 27.0 Not Reported 4.47 E 3.80 E 6.93 NE No 0.000 No Precipitation 06/20/2018 08:35 PM 06/20/2018 08:55 PM 0.000 0.000 0.000 0.000 0.000 Not Reported Not Reported
07/12/2018 11:15 AM 80.96 60.44 45.14 95.90 58.82 28.0 Not Reported 5.37 NE 6.49 N 6.71 E No 0.000 No Precipitation 06/20/2018 08:35 PM 06/20/2018 08:55 PM 0.000 0.000 0.000 0.000 0.000 Not Reported Not Reported
07/12/2018 11:30 AM 80.60 60.44 45.32 95.90 58.82 28.0 Not Reported 4.03 NW 4.03 NW 8.05 N No 0.000 No Precipitation 06/20/2018 08:35 PM 06/20/2018 08:55 PM 0.000 0.000 0.000 0.000 0.000 Not Reported Not Reported
07/12/2018 11:45 AM 81.68 60.80 45.32 95.90 58.82 27.0 Not Reported 3.58 N 0.00 NE 6.49 N No 0.000 No Precipitation 06/20/2018 08:35 PM 06/20/2018 08:55 PM 0.000 0.000 0.000 0.000 0.000 Not Reported Not Reported
07/12/2018 12:00 PM 83.66 61.70 45.68 95.90 58.82 26.0 Not Reported 5.59 N 6.71 NW 6.71 NW No 0.000 No Precipitation 06/20/2018 08:35 PM 06/20/2018 08:55 PM 0.000 0.000 0.000 0.000 0.000 Not Reported Not Reported
07/12/2018 12:15 PM 83.48 61.34 44.96 95.90 58.82 25.0 Not Reported 2.24 NW 6.49 NW 4.70 NE No 0.000 No Precipitation 06/20/2018 08:35 PM 06/20/2018 08:55 PM 0.000 0.000 0.000 0.000 0.000 Not Reported Not Reported
07/12/2018 12:30 PM 84.38 61.70 44.96 95.90 58.82 25.0 Not Reported 3.36 SE 1.57 W 5.37 SE No 0.000 No Precipitation 06/20/2018 08:35 PM 06/20/2018 08:55 PM 0.000 0.000 0.000 0.000 0.000 Not Reported Not Reported
07/12/2018 12:45 PM 85.10 61.88 44.96 95.90 58.82 24.0 Not Reported 2.24 NW 1.34 E 7.61 N No 0.000 No Precipitation 06/20/2018 08:35 PM 06/20/2018 08:55 PM 0.000 0.000 0.000 0.000 0.000 Not Reported Not Reported
07/12/2018 01:00 PM 87.44 62.78 44.96 95.90 58.82 22.0 Not Reported 1.79 S 1.57 S 4.25 SW No 0.000 No Precipitation 06/20/2018 08:35 PM 06/20/2018 08:55 PM 0.000 0.000 0.000 0.000 0.000 Not Reported Not Reported
07/12/2018 01:15 PM 87.80 62.78 44.60 95.90 58.82 22.0 Not Reported 2.46 N 3.36 NW 5.37 NE No 0.000 No Precipitation 06/20/2018 08:35 PM 06/20/2018 08:55 PM 0.000 0.000 0.000 0.000 0.000 Not Reported Not Reported
07/12/2018 01:30 PM 88.52 62.96 44.42 95.90 58.82 21.0 Not Reported 3.58 NW 3.13 N 4.25 NW No 0.000 No Precipitation 06/20/2018 08:35 PM 06/20/2018 08:55 PM 0.000 0.000 0.000 0.000 0.000 Not Reported Not Reported
07/12/2018 01:45 PM 89.78 63.14 43.88 95.90 58.82 20.0 Not Reported 5.14 W 2.91 SW 6.04 W No 0.000 No Precipitation 06/20/2018 08:35 PM 06/20/2018 08:55 PM 0.000 0.000 0.000 0.000 0.000 Not Reported Not Reported
07/12/2018 02:00 PM 90.68 62.96 42.62 95.90 58.82 18.0 Not Reported 2.68 SW 3.13 SW 6.04 W No 0.000 No Precipitation 06/20/2018 08:35 PM 06/20/2018 08:55 PM 0.000 0.000 0.000 0.000 0.000 Not Reported Not Reported
07/12/2018 02:15 PM 91.58 63.50 42.80 95.90 58.82 18.0 Not Reported 2.68 NE 2.68 E 4.70 NE No 0.000 No Precipitation 06/20/2018 08:35 PM 06/20/2018 08:55 PM 0.000 0.000 0.000 0.000 0.000 Not Reported Not Reported
07/12/2018 02:30 PM 91.58 63.32 42.26 95.90 58.82 18.0 Not Reported 4.92 N 3.13 N 9.17 N No 0.000 No Precipitation 06/20/2018 08:35 PM 06/20/2018 08:55 PM 0.000 0.000 0.000 0.000 0.000 Not Reported Not Reported
07/12/2018 02:45 PM 93.92 63.86 41.54 95.90 58.82 16.0 Not Reported 3.36 W 5.59 N 6.26 NW No 0.000 No Precipitation 06/20/2018 08:35 PM 06/20/2018 08:55 PM 0.000 0.000 0.000 0.000 0.000 Not Reported Not Reported
07/12/2018 03:00 PM 95.18 63.68 39.38 95.90 58.82 14.0 Not Reported 3.80 N 3.36 NW 4.92 N No 0.000 No Precipitation 06/20/2018 08:35 PM 06/20/2018 08:55 PM 0.000 0.000 0.000 0.000 0.000 Not Reported Not Reported
07/12/2018 03:15 PM 95.00 64.04 40.82 95.90 58.82 15.0 Not Reported 8.05 NW 5.59 NW 8.28 N No 0.000 No Precipitation 06/20/2018 08:35 PM 06/20/2018 08:55 PM 0.000 0.000 0.000 0.000 0.000 Not Reported Not Reported
07/12/2018 03:30 PM 94.82 63.86 40.28 95.90 58.82 15.0 Not Reported 6.04 N 4.03 N 8.50 N No 0.000 No Precipitation 06/20/2018 08:35 PM 06/20/2018 08:55 PM 0.000 0.000 0.000 0.000 0.000 Not Reported Not Reported
07/12/2018 03:45 PM 96.26 64.22 39.92 96.62 58.82 14.0 Not Reported 1.79 W 4.70 NW 10.96 N No 0.000 No Precipitation 06/20/2018 08:35 PM 06/20/2018 08:55 PM 0.000 0.000 0.000 0.000 0.000 Not Reported Not Reported
07/12/2018 04:00 PM 95.72 63.86 39.56 96.80 58.82 14.0 Not Reported 6.26 N 6.49 N 11.63 N No 0.000 No Precipitation 06/20/2018 08:35 PM 06/20/2018 08:55 PM 0.000 0.000 0.000 0.000 0.000 Not Reported Not Reported
07/12/2018 04:15 PM 95.54 63.68 39.02 96.80 58.82 14.0 Not Reported 7.16 N 0.67 N 10.29 N No 0.000 No Precipitation 06/20/2018 08:35 PM 06/20/2018 08:55 PM 0.000 0.000 0.000 0.000 0.000 Not Reported Not Reported
07/12/2018 04:30 PM 96.62 64.04 38.84 97.16 58.82 13.0 Not Reported 1.34 N 0.45 SW 9.40 NW No 0.000 No Precipitation 06/20/2018 08:35 PM 06/20/2018 08:55 PM 0.000 0.000 0.000 0.000 0.000 Not Reported Not Reported
07/12/2018 04:45 PM 96.80 64.04 38.84 98.78 58.82 13.0 Not Reported 4.70 N 5.82 NW 7.61 NW No 0.000 No Precipitation 06/20/2018 08:35 PM 06/20/2018 08:55 PM 0.000 0.000 0.000 0.000 0.000 Not Reported Not Reported
07/12/2018 05:00 PM 98.24 64.76 39.38 98.78 58.82 13.0 Not Reported 6.49 W 7.83 W 10.07 W No 0.000 No Precipitation 06/20/2018 08:35 PM 06/20/2018 08:55 PM 0.000 0.000 0.000 0.000 0.000 Not Reported Not Reported
07/12/2018 05:15 PM 98.60 64.58 38.66 98.78 58.82 12.0 Not Reported 7.38 NW 7.83 W 10.74 W No 0.000 No Precipitation 06/20/2018 08:35 PM 06/20/2018 08:55 PM 0.000 0.000 0.000 0.000 0.000 Not Reported Not Reported
07/12/2018 05:30 PM 98.78 64.94 39.20 99.32 58.82 12.0 Not Reported 3.36 W 3.36 W 7.83 NW No 0.000 No Precipitation 06/20/2018 08:35 PM 06/20/2018 08:55 PM 0.000 0.000 0.000 0.000 0.000 Not Reported Not Reported
07/12/2018 05:45 PM 99.50 64.94 38.48 100.76 58.82 12.0 Not Reported 8.50 NW 7.83 NW 10.51 N No 0.000 No Precipitation 06/20/2018 08:35 PM 06/20/2018 08:55 PM 0.000 0.000 0.000 0.000 0.000 Not Reported Not Reported
07/12/2018 06:00 PM 98.42 64.58 38.66 100.76 58.82 12.0 Not Reported 3.58 SW 5.82 S 7.38 NW No 0.000 No Precipitation 06/20/2018 08:35 PM 06/20/2018 08:55 PM 0.000 0.000 0.000 0.000 0.000 Not Reported Not Reported
07/12/2018 06:15 PM 99.68 64.76 38.12 100.76 58.82 12.0 Not Reported 7.38 W 7.16 NW 8.72 SW No 0.000 No Precipitation 06/20/2018 08:35 PM 06/20/2018 08:55 PM 0.000 0.000 0.000 0.000 0.000 Not Reported Not Reported
07/12/2018 06:30 PM 98.78 64.04 36.14 100.76 58.82 11.0 Not Reported 7.61 NW 6.93 NW 12.08 NW No 0.000 No Precipitation 06/20/2018 08:35 PM 06/20/2018 08:55 PM 0.000 0.000 0.000 0.000 0.000 Not Reported Not Reported
07/12/2018 06:45 PM 98.78 64.04 36.68 100.76 58.82 11.0 Not Reported 3.36 NW 3.36 NW 9.62 NW No 0.000 No Precipitation 06/20/2018 08:35 PM 06/20/2018 08:55 PM 0.000 0.000 0.000 0.000 0.000 Not Reported Not Reported
07/12/2018 07:00 PM 97.88 63.86 36.32 100.76 58.82 11.0 Not Reported 8.05 N 9.84 N 11.41 N No 0.000 No Precipitation 06/20/2018 08:35 PM 06/20/2018 08:55 PM 0.000 0.000 0.000 0.000 0.000 Not Reported Not Reported
07/12/2018 07:15 PM 97.70 63.32 35.24 100.76 58.82 11.0 Not Reported 4.03 N 7.61 N 9.62 N No 0.000 No Precipitation 06/20/2018 08:35 PM 06/20/2018 08:55 PM 0.000 0.000 0.000 0.000 0.000 Not Reported Not Reported
07/12/2018 07:30 PM 97.52 63.32 34.88 100.76 58.82 11.0 Not Reported 6.04 N 7.83 N 7.83 N No 0.000 No Precipitation 06/20/2018 08:35 PM 06/20/2018 08:55 PM 0.000 0.000 0.000 0.000 0.000 Not Reported Not Reported
07/12/2018 07:45 PM 97.88 63.14 34.16 100.76 58.82 10.0 Not Reported 4.03 NW 2.91 N 7.61 N No 0.000 No Precipitation 06/20/2018 08:35 PM 06/20/2018 08:55 PM 0.000 0.000 0.000 0.000 0.000 Not Reported Not Reported
07/12/2018 08:00 PM 97.88 63.32 34.52 100.76 58.82 10.0 Not Reported 4.03 NE 4.47 NE 6.93 N No 0.000 No Precipitation 06/20/2018 08:35 PM 06/20/2018 08:55 PM 0.000 0.000 0.000 0.000 0.000 Not Reported Not Reported
07/12/2018 08:15 PM 96.26 63.50 37.40 100.76 58.82 12.0 Not Reported 10.29 S 9.40 S 8.05 S No 0.000 No Precipitation 06/20/2018 08:35 PM 06/20/2018 08:55 PM 0.000 0.000 0.000 0.000 0.000 Not Reported Not Reported
07/12/2018 08:30 PM 95.36 63.68 39.02 100.76 58.82 14.0 Not Reported 8.05 S 7.38 S 12.08 S No 0.000 No Precipitation 06/20/2018 08:35 PM 06/20/2018 08:55 PM 0.000 0.000 0.000 0.000 0.000 Not Reported Not Reported
07/12/2018 08:45 PM 93.74 63.50 40.82 100.76 58.82 16.0 Not Reported 10.07 S 8.72 SE 12.75 S No 0.000 No Precipitation 06/20/2018 08:35 PM 06/20/2018 08:55 PM 0.000 0.000 0.000 0.000 0.000 Not Reported Not Reported
07/12/2018 09:00 PM 92.12 63.14 41.00 100.76 58.82 16.0 Not Reported 10.29 S 10.96 SE 14.54 S No 0.000 No Precipitation 06/20/2018 08:35 PM 06/20/2018 08:55 PM 0.000 0.000 0.000 0.000 0.000 Not Reported Not Reported
07/12/2018 09:15 PM 91.04 62.96 41.54 100.76 58.82 17.0 Not Reported 10.29 S 8.50 SE 12.08 S No 0.000 No Precipitation 06/20/2018 08:35 PM 06/20/2018 08:55 PM 0.000 0.000 0.000 0.000 0.000 Not Reported Not Reported
07/12/2018 09:30 PM 90.14 62.42 41.36 100.76 58.82 18.0 Not Reported 9.17 N 10.51 N 10.51 N No 0.000 No Precipitation 06/20/2018 08:35 PM 06/20/2018 08:55 PM 0.000 0.000 0.000 0.000 0.000 Not Reported Not Reported
07/12/2018 09:45 PM 89.96 62.42 41.18 100.76 58.82 18.0 Not Reported 4.03 SW 3.58 S 11.18 N No 0.000 No Precipitation 06/20/2018 08:35 PM 06/20/2018 08:55 PM 0.000 0.000 0.000 0.000 0.000 Not Reported Not Reported
07/12/2018 10:00 PM 87.80 60.98 39.56 100.76 58.82 18.0 Not Reported 7.16 SE 6.26 SE 8.50 SE No 0.000 No Precipitation 06/20/2018 08:35 PM 06/20/2018 08:55 PM 0.000 0.000 0.000 0.000 0.000 Not Reported Not Reported
07/12/2018 10:15 PM 87.08 60.80 39.74 100.76 58.82 18.0 Not Reported 5.82 SE 5.59 SE 9.62 SE No 0.000 No Precipitation 06/20/2018 08:35 PM 06/20/2018 08:55 PM 0.000 0.000 0.000 0.000 0.000 Not Reported Not Reported
07/12/2018 10:30 PM 86.54 60.62 39.74 100.76 58.82 19.0 Not Reported 6.04 S 5.59 S 7.16 S No 0.000 No Precipitation 06/20/2018 08:35 PM 06/20/2018 08:55 PM 0.000 0.000 0.000 0.000 0.000 Not Reported Not Reported
07/12/2018 10:45 PM 85.46 60.26 39.74 100.76 58.82 19.0 Not Reported 8.05 S 9.17 S 10.07 S No 0.000 No Precipitation 06/20/2018 08:35 PM 06/20/2018 08:55 PM 0.000 0.000 0.000 0.000 0.000 Not Reported Not Reported
07/12/2018 11:00 PM 83.84 59.72 40.10 100.76 58.82 21.0 Not Reported 8.72 SE 11.63 S 11.63 S No 0.000 No Precipitation 06/20/2018 08:35 PM 06/20/2018 08:55 PM 0.000 0.000 0.000 0.000 0.000 Not Reported Not Reported
07/12/2018 11:15 PM 83.84 59.90 40.46 100.76 58.82 21.0 Not Reported 15.66 S 14.09 SE 18.57 S No 0.000 No Precipitation 06/20/2018 08:35 PM 06/20/2018 08:55 PM 0.000 0.000 0.000 0.000 0.000 Not Reported Not Reported
07/12/2018 11:30 PM 83.12 59.72 40.64 100.76 58.82 22.0 Not Reported 16.78 S 15.43 S 19.91 S No 0.000 No Precipitation 06/20/2018 08:35 PM 06/20/2018 08:55 PM 0.000 0.000 0.000 0.000 0.000 Not Reported Not Reported
07/12/2018 11:45 PM 82.22 59.54 41.00 100.76 58.82 23.0 Not Reported 14.09 S 13.65 S 17.22 SE No 0.000 No Precipitation 06/20/2018 08:35 PM 06/20/2018 08:55 PM 0.000 0.000 0.000 0.000 0.000 Not Reported Not Reported